createdAt,value
2022-08-25T00:04:14.637Z,26.33
2022-08-25T00:09:18.428Z,26.33
2022-08-25T00:14:22.754Z,26.38
2022-08-25T00:19:26.872Z,26.46
2022-08-25T00:24:30.785Z,26.60
2022-08-25T00:29:33.977Z,26.55
2022-08-25T00:34:37.528Z,26.51
2022-08-25T00:39:40.143Z,26.41
2022-08-25T00:44:43.641Z,26.31
2022-08-25T00:49:49.714Z,26.30
2022-08-25T00:54:54.623Z,26.28
2022-08-25T00:59:57.729Z,26.30
2022-08-25T01:05:00.202Z,26.25
2022-08-25T01:10:03.108Z,26.37
2022-08-25T01:15:06.841Z,26.40
2022-08-25T01:20:09.418Z,26.36
2022-08-25T01:25:21.842Z,26.36
2022-08-25T01:30:24.673Z,26.30
2022-08-25T01:35:27.024Z,26.28
2022-08-25T01:40:29.892Z,26.27
2022-08-25T01:45:32.866Z,26.24
2022-08-25T01:50:35.228Z,26.33
2022-08-25T01:55:40.787Z,26.41
2022-08-25T02:00:45.395Z,26.38
2022-08-25T02:05:48.119Z,26.40
2022-08-25T02:10:51.987Z,26.39
2022-08-25T02:15:56.256Z,26.49
2022-08-25T02:20:58.774Z,26.50
2022-08-25T02:26:01.146Z,26.34
2022-08-25T02:31:05.459Z,26.23
2022-08-25T02:36:08.236Z,26.33
2022-08-25T02:41:12.552Z,26.39
2022-08-25T02:46:15.956Z,26.47
2022-08-25T03:02:01.872Z,25.80
2022-08-25T03:07:05.500Z,24.99
2022-08-25T03:12:09.463Z,25.80
2022-08-25T03:17:11.756Z,26.19
2022-08-25T03:22:14.404Z,26.36
2022-08-25T03:27:16.777Z,26.40
2022-08-25T03:32:19.088Z,26.45
2022-08-25T03:37:21.367Z,26.50
2022-08-25T03:42:24.837Z,26.67
2022-08-25T03:47:29.235Z,26.84
2022-08-25T03:52:31.532Z,26.89
2022-08-25T03:57:33.968Z,26.85
2022-08-25T04:02:36.335Z,26.68
2022-08-25T04:07:39.056Z,26.76
2022-08-25T04:12:41.709Z,26.83
2022-08-25T04:17:44.056Z,26.93
2022-08-25T04:22:47.477Z,26.92
2022-08-25T04:27:50.677Z,26.99
2022-08-25T04:32:53.015Z,27.04
2022-08-25T04:37:55.329Z,27.19
2022-08-25T04:42:57.640Z,27.29
2022-08-25T04:48:01.162Z,27.32
2022-08-25T04:53:03.763Z,27.45
2022-08-25T04:58:06.695Z,27.55
2022-08-25T05:03:17.437Z,27.59
2022-08-25T05:08:19.760Z,27.68
2022-08-25T05:13:23.248Z,27.72
2022-08-25T05:18:26.467Z,27.72
2022-08-25T05:23:28.848Z,27.71
2022-08-25T05:28:31.590Z,27.70
2022-08-25T05:33:34.487Z,27.45
2022-08-25T05:38:37.662Z,27.34
2022-08-25T05:43:41.183Z,27.26
2022-08-25T05:48:43.660Z,27.16
2022-08-25T05:53:47.167Z,27.10
2022-08-25T05:58:50.054Z,27.07
2022-08-25T06:03:53.180Z,27.04
2022-08-25T06:08:55.534Z,27.22
2022-08-25T06:13:57.898Z,26.78
2022-08-25T06:19:01.062Z,25.91
2022-08-25T06:24:03.594Z,25.20
2022-08-25T06:29:05.986Z,24.93
2022-08-25T06:34:08.391Z,24.82
2022-08-25T06:39:10.896Z,24.78
2022-08-25T06:44:13.312Z,24.81
2022-08-25T06:49:15.709Z,24.84
2022-08-25T06:54:18.156Z,24.90
2022-08-25T06:59:20.477Z,25.04
2022-08-25T07:04:22.906Z,25.00
2022-08-25T07:09:25.253Z,25.16
2022-08-25T07:14:28.065Z,25.35
2022-08-25T07:19:30.425Z,25.39
2022-08-25T07:24:32.816Z,25.40
2022-08-25T07:29:42.280Z,25.49
2022-08-25T07:34:52.241Z,25.52
2022-08-25T07:39:55.433Z,25.60
2022-08-25T07:44:59.562Z,25.65
2022-08-25T07:50:02.007Z,25.77
2022-08-25T07:55:08.459Z,25.91
2022-08-25T08:00:14.887Z,25.95
2022-08-25T08:05:17.357Z,26.04
2022-08-25T08:15:43.609Z,26.20
2022-08-25T08:20:47.101Z,26.31
2022-08-25T08:25:49.412Z,26.42
2022-08-25T08:30:53.663Z,26.46
2022-08-25T08:35:59.042Z,26.52
2022-08-25T08:41:05.484Z,26.70
2022-08-25T08:46:08.269Z,26.70
2022-08-25T08:51:17.500Z,26.63
2022-08-25T08:56:22.798Z,26.79
2022-08-25T09:01:30.729Z,26.76
2022-08-25T09:06:39.130Z,26.93
2022-08-25T09:11:41.509Z,27.05
2022-08-25T09:16:54.905Z,27.03
2022-08-25T09:22:35.397Z,27.29
2022-08-25T09:27:32.049Z,27.54
2022-08-25T09:32:38.363Z,27.60
2022-08-25T09:37:42.315Z,27.76
2022-08-25T09:42:48.174Z,27.89
2022-08-25T09:47:52.393Z,28.10
2022-08-25T09:53:14.735Z,28.20
2022-08-25T09:58:22.280Z,28.23
2022-08-25T10:03:25.252Z,28.44
2022-08-25T10:08:27.719Z,28.80
2022-08-25T10:13:34.219Z,28.92
2022-08-25T10:18:37.023Z,29.03
2022-08-25T10:23:47.251Z,29.25
2022-08-25T10:28:49.867Z,29.47
2022-08-25T10:34:03.395Z,29.51
2022-08-25T10:39:34.354Z,29.56
2022-08-25T10:44:37.428Z,29.81
2022-08-25T10:49:45.430Z,30.00
2022-08-25T10:54:47.753Z,30.26
2022-08-25T10:59:53.014Z,30.63
2022-08-25T11:04:59.389Z,30.80
2022-08-25T11:10:07.215Z,30.87
2022-08-25T11:15:13.390Z,30.26
2022-08-25T11:20:19.927Z,30.24
2022-08-25T11:25:34.872Z,30.97
2022-08-25T11:30:38.135Z,31.34
2022-08-25T11:35:47.166Z,30.42
2022-08-25T11:40:51.545Z,29.03
2022-08-25T11:46:14.118Z,29.38
2022-08-25T11:51:19.390Z,30.45
2022-08-25T11:56:27.759Z,30.47
2022-08-25T12:01:33.167Z,30.04
2022-08-25T12:06:36.625Z,30.34
2022-08-25T12:11:39.642Z,29.33
2022-08-25T12:16:47.002Z,30.28
2022-08-25T12:21:55.244Z,30.95
2022-08-25T12:26:59.498Z,29.84
2022-08-25T12:32:13.742Z,30.03
2022-08-25T12:37:18.584Z,31.27
2022-08-25T12:42:23.354Z,31.17
2022-08-25T12:47:32.159Z,31.47
2022-08-25T12:52:37.795Z,31.17
2022-08-25T12:57:43.046Z,30.52
2022-08-25T13:02:51.768Z,30.79
2022-08-25T13:08:01.280Z,32.32
2022-08-25T13:13:11.112Z,31.73
2022-08-25T13:18:15.131Z,31.04
2022-08-25T13:23:25.614Z,30.51
2022-08-25T13:28:30.459Z,30.86
2022-08-25T13:33:33.428Z,31.92
2022-08-25T13:38:36.259Z,31.14
2022-08-25T13:43:41.053Z,30.67
2022-08-25T13:48:49.326Z,30.40
2022-08-25T13:53:58.386Z,30.56
2022-08-25T13:59:04.280Z,32.26
2022-08-25T14:09:15.885Z,31.31
2022-08-25T14:14:18.959Z,30.84
2022-08-25T14:19:23.565Z,31.65
2022-08-25T14:24:27.003Z,31.77
2022-08-25T14:29:30.015Z,31.08
2022-08-25T14:34:36.669Z,30.72
2022-08-25T14:39:39.090Z,31.66
2022-08-25T14:44:41.609Z,32.36
2022-08-25T14:49:45.741Z,31.45
2022-08-25T14:54:48.062Z,30.96
2022-08-25T14:59:51.613Z,31.74
2022-08-25T15:04:55.932Z,33.94
2022-08-25T15:09:58.288Z,34.26
2022-08-25T15:15:02.493Z,34.65
2022-08-25T15:20:06.363Z,35.09
2022-08-25T15:25:08.847Z,35.27
2022-08-25T15:30:13.093Z,35.42
2022-08-25T15:35:15.677Z,35.61
2022-08-25T15:40:18.725Z,35.77
2022-08-25T15:45:21.369Z,35.73
2022-08-25T15:50:26.009Z,35.78
2022-08-25T15:55:28.759Z,35.88
2022-08-25T16:00:31.764Z,35.80
2022-08-25T16:05:37.245Z,35.72
2022-08-25T16:10:41.224Z,35.45
2022-08-25T16:15:46.970Z,34.84
2022-08-25T16:20:55.592Z,33.68
2022-08-25T16:25:58.519Z,32.49
2022-08-25T16:31:01.328Z,31.39
2022-08-25T16:36:06.517Z,30.52
2022-08-25T16:41:10.823Z,29.76
2022-08-25T16:46:15.104Z,29.14
2022-08-25T16:51:22.580Z,29.76
2022-08-25T16:56:28.366Z,30.31
2022-08-25T17:01:33.713Z,29.30
2022-08-25T17:06:37.963Z,28.87
2022-08-25T17:11:45.082Z,30.27
2022-08-25T17:16:48.427Z,30.84
2022-08-25T17:21:54.398Z,29.63
2022-08-25T17:26:57.274Z,28.62
2022-08-25T17:32:00.060Z,29.23
2022-08-25T17:37:02.871Z,30.23
2022-08-25T17:42:06.159Z,30.39
2022-08-25T17:47:09.848Z,28.97
2022-08-25T17:52:12.982Z,29.28
2022-08-25T17:57:16.003Z,29.86
2022-08-25T18:02:18.352Z,30.05
2022-08-25T18:07:20.773Z,30.14
2022-08-25T18:12:24.153Z,30.22
2022-08-25T18:17:29.874Z,29.85
2022-08-25T18:22:32.325Z,28.35
2022-08-25T18:27:35.517Z,28.91
2022-08-25T18:32:38.091Z,29.43
2022-08-25T18:37:43.549Z,29.65
2022-08-25T18:42:45.986Z,29.75
2022-08-25T18:47:49.665Z,29.79
2022-08-25T18:52:52.021Z,29.71
2022-08-25T18:57:57.894Z,29.66
2022-08-25T19:03:00.639Z,29.63
2022-08-25T19:08:05.547Z,29.58
2022-08-25T19:13:08.580Z,29.52
2022-08-25T19:18:12.997Z,29.45
2022-08-25T19:23:15.646Z,29.34
2022-08-25T19:28:18.847Z,29.29
2022-08-25T19:33:42.037Z,29.31
2022-08-25T19:38:45.478Z,29.33
2022-08-25T19:43:55.106Z,29.42
2022-08-25T19:49:01.596Z,29.55
2022-08-25T19:59:52.043Z,27.14
2022-08-25T20:04:55.965Z,28.12
2022-08-25T20:09:59.991Z,28.68
2022-08-25T20:15:02.544Z,28.90
2022-08-25T20:20:06.026Z,29.08
2022-08-25T20:25:13.616Z,29.25
2022-08-25T20:30:19.067Z,29.35
2022-08-25T20:35:26.336Z,29.32
2022-08-25T20:40:29.841Z,29.29
2022-08-25T20:45:32.478Z,29.31
2022-08-25T20:50:37.796Z,29.35
2022-08-25T20:55:42.495Z,29.43
2022-08-25T21:00:46.446Z,28.44
2022-08-25T21:05:54.053Z,27.09
2022-08-25T21:10:56.633Z,27.96
2022-08-25T21:16:01.118Z,28.65
2022-08-25T21:21:11.098Z,28.91
2022-08-25T21:26:16.955Z,28.99
2022-08-25T21:31:20.583Z,29.13
2022-08-25T21:36:24.238Z,29.17
2022-08-25T21:41:29.265Z,29.05
2022-08-25T21:46:32.343Z,29.02
2022-08-25T21:51:40.558Z,28.88
2022-08-25T21:56:44.929Z,28.56
2022-08-25T22:01:47.285Z,28.39
2022-08-25T22:06:51.085Z,28.30
2022-08-25T22:11:54.576Z,28.36
2022-08-25T22:16:57.208Z,28.45
2022-08-25T22:22:00.115Z,28.60
2022-08-25T22:27:02.407Z,28.76
2022-08-25T22:32:06.403Z,28.55
2022-08-25T22:37:09.565Z,26.91
2022-08-25T22:42:12.105Z,26.80
2022-08-25T22:47:14.466Z,27.61
2022-08-25T22:52:16.725Z,27.87
2022-08-25T22:57:19.552Z,28.00
2022-08-25T23:02:22.307Z,28.07
2022-08-25T23:07:24.629Z,28.17
2022-08-25T23:12:26.954Z,28.15
2022-08-25T23:17:30.228Z,28.13
2022-08-25T23:22:32.785Z,28.21
2022-08-25T23:27:35.257Z,28.29
2022-08-25T23:32:37.528Z,28.29
2022-08-25T23:37:39.868Z,28.27
2022-08-25T23:42:42.150Z,28.26
2022-08-25T23:47:44.706Z,28.15
2022-08-25T23:52:47.015Z,28.02
2022-08-25T23:57:51.602Z,27.96
